Language selection

My Weather Profile Weather Topics  | 

Southern Lake Huron: Past 24 Hour Conditions

 

South Georgian Bay - 45143

10:00 PM EDT 11 August 2022Buoy position: 44.95N 80.63W
Disclaimer

This table is a summary of hourly weather conditions for the past 24 hours.
Please note that these observations might not always be representative of weather conditions over their associated marine area.

Date / Time
(EDT)
Wind(knots) Wave height(m) Wave period(s) Pressure(kPa) Air tempC) Water tempC)
11 August 2022
22:00 WNW 13 gust 16 0.7 3.8 101.9 20 20
21:00 WNW 14 gust 16 0.6 3.8 101.9 20 20
20:00 WNW 15 gust 18 0.7 3.9 101.9 20 20
19:00 NW 15 gust 17 0.7 3.8 101.8 20 20
18:00 WNW 14 gust 16 0.7 4.2 101.9 20 20
17:00 NW 15 gust 17 0.9 4.3 101.9 19 20
16:00 NW 16 gust 20 0.9 4.7 101.9 19 20
15:00 NW 17 gust 21 1.0 5.1 101.9 18 20
14:00 NNW 16 gust 18 0.9 4.8 101.9 18 20
13:00 NNW 13 gust 17 0.9 4.9 101.9 18 20
12:00 NNW 12 gust 16 1.0 5.6 101.9 17 20
11:00 N 12 gust 14 1.0 5.6 101.9 17 20
10:00 N 14 gust 16 1.1 5.4 101.8 17 20
9:00 NNE 17 gust 20 1.3 5.3 101.8 17 20
8:00 NNE 19 gust 23 1.3 5.3 101.7 18 20
7:00 NNE 20 gust 24 1.3 5.0 101.6 18 20
6:00 N 21 gust 26 1.2 3.8 101.5 19 20
5:00 N 18 gust 22 1.0 4.5 101.5 20 20
4:00 N 17 gust 22 1.1 4.8 101.5 20 20
3:00 NW 17 gust 20 0.9 4.1 101.5 19 20
2:00 NW 18 gust 22 0.7 3.6 101.5 20 20
1:00 WNW 17 gust 21 0.7 3.4 101.5 20 20
0:00 WNW 17 gust 20 0.6 3.3 101.5 21 20
10 August 2022
23:00 W 12 gust 14 0.4 2.8 101.5 21 21
22:00 W 12 gust 14 0.4 2.6 101.6 22 21

Zoom-in to make a selection

Map of Great Lakes - Lake Huron marine weather areas N Huron - 45003 W Erie - 45005 S Huron - 45008 Lake Ontario - 45012 Port Stanley - 45132 Prince Edward Point - 45135 Georgian Bay - 45137 Grimsby - 45139 Port Colborne - 45142 South Georgian Bay - 45143 Lake St Clair - 45147 South Lake Huron - 45149 Lake Simcoe - 45151 Lake Nipissing - 45152 North Channel - 45154 Ajax - 45159 Sault Ste. Marie Airport Killarney Greater Sudbury Airport North Bay Airport Gore Bay-Manitoulin Airport Great Duck Island Brockville Grenadier Island Kingston Airport Collingwood Lagoon City Muskoka Airport Parry Sound Harbour Lake Simcoe Regional Airport Wiarton Airport Western Islands Cove Island Goderich Sarnia Chris Hadfield Airport Tobermory Harrow AAFC Long Point Port Weller St. Catharines / Niagara District Airport Southeast Shoal Vineland Station Welland-Pelham Windsor Airport Port Colborne Erieau Point Pelee Burlington Lift Bridge Cobourg Hamilton Munro Int'l Airport Oshawa Executive Airport Point Petre Toronto City Centre Airport CFB Trenton Peterborough Municipal Airport
Legend:
buoy Buoy
land station Land Station

Great Lakes - Lake Huron Area

Another Region

What we are doing

Features

WeatherCAN app: set custom notifications

Learn how to set custom Air Quality Health Index notifications on the WeatherCAN app

Are you prepared for summer severe weather?

We have information to help you stay safe

Date modified: